createdAt,value
2023-07-05T00:00:50.016Z,95108.53
2023-07-05T00:01:51.669Z,95105.91
2023-07-05T00:02:54.262Z,95103.91
2023-07-05T00:03:56.227Z,95102.31
2023-07-05T00:04:57.997Z,95106.28
2023-07-05T00:06:03.621Z,95107.00
2023-07-05T00:07:05.576Z,95109.03
2023-07-05T00:08:07.518Z,95105.03
2023-07-05T00:09:09.486Z,95106.06
2023-07-05T00:10:11.959Z,95119.13
2023-07-05T00:11:16.216Z,95125.22
2023-07-05T00:12:20.908Z,95131.94
2023-07-05T00:13:22.681Z,95139.66
2023-07-05T00:14:24.277Z,95161.13
2023-07-05T00:15:29.424Z,95156.47
2023-07-05T00:16:31.228Z,95164.91
2023-07-05T00:17:34.586Z,95170.19
2023-07-05T00:18:37.546Z,95168.03
2023-07-05T00:19:40.766Z,95172.78
2023-07-05T00:20:42.451Z,95177.09
2023-07-05T00:21:46.460Z,95168.78
2023-07-05T00:22:48.148Z,95162.88
2023-07-05T00:23:49.759Z,95166.63
2023-07-05T00:24:52.650Z,95157.38
2023-07-05T00:25:54.621Z,95152.28
2023-07-05T00:26:56.477Z,95140.59
2023-07-05T00:27:57.987Z,95149.09
2023-07-05T00:28:59.668Z,95155.56
2023-07-05T00:30:04.394Z,95157.66
2023-07-05T00:31:07.390Z,95159.19
2023-07-05T00:32:11.686Z,95164.16
2023-07-05T00:33:15.803Z,95160.16
2023-07-05T00:34:17.497Z,95157.13
2023-07-05T00:35:19.143Z,95149.97
2023-07-05T00:36:20.854Z,95150.41
2023-07-05T00:37:22.458Z,95143.25
2023-07-05T00:38:24.608Z,95141.41
2023-07-05T00:39:27.922Z,95133.25
2023-07-05T00:40:29.990Z,95131.41
2023-07-05T00:41:31.732Z,95125.56
2023-07-05T00:42:33.295Z,95124.91
2023-07-05T00:43:47.980Z,95129.00
2023-07-05T00:45:11.550Z,95124.75
2023-07-05T00:46:25.461Z,95123.97
2023-07-05T00:47:33.437Z,95130.31
2023-07-05T00:48:42.616Z,95134.28
2023-07-05T00:49:44.592Z,95121.94
2023-07-05T00:50:52.161Z,95119.72
2023-07-05T00:52:03.211Z,95124.50
2023-07-05T00:53:05.231Z,95132.22
2023-07-05T00:54:07.088Z,95131.94
2023-07-05T00:55:09.964Z,95138.84
2023-07-05T00:56:18.811Z,95140.97
2023-07-05T00:57:29.445Z,95145.78
2023-07-05T00:58:34.186Z,95146.84
2023-07-05T00:59:48.074Z,95153.13
2023-07-05T01:00:50.297Z,95156.56
2023-07-05T01:02:02.689Z,95170.41
2023-07-05T01:03:13.212Z,95174.22
2023-07-05T01:04:15.136Z,95179.00
2023-07-05T01:05:17.671Z,95159.94
2023-07-05T01:06:23.521Z,95155.03
2023-07-05T01:07:25.281Z,95139.19
2023-07-05T01:08:26.931Z,95140.16
2023-07-05T01:09:29.862Z,95142.25
2023-07-05T01:10:32.019Z,95150.19
2023-07-05T01:11:42.078Z,95163.81
2023-07-05T01:12:56.690Z,95160.59
2023-07-05T01:14:20.499Z,95153.66
2023-07-05T01:15:32.213Z,95164.28
2023-07-05T01:16:55.795Z,95159.44
2023-07-05T01:18:32.879Z,95158.44
2023-07-05T01:20:07.236Z,95161.31
2023-07-05T01:21:27.546Z,95168.59
2023-07-05T01:22:52.479Z,95164.50
2023-07-05T01:24:18.004Z,95165.78
2023-07-05T01:25:41.275Z,95168.97
2023-07-05T01:27:24.149Z,95176.97
2023-07-05T01:28:55.309Z,95181.66
2023-07-05T01:30:18.240Z,95181.53
2023-07-05T01:31:38.462Z,95187.72
2023-07-05T01:32:56.607Z,95196.72
2023-07-05T01:34:15.267Z,95186.94
2023-07-05T01:35:26.695Z,95182.19
2023-07-05T01:36:31.198Z,95177.22
2023-07-05T01:37:44.874Z,95187.44
2023-07-05T01:38:46.597Z,95185.81
2023-07-05T01:39:49.015Z,95194.88
2023-07-05T01:40:55.139Z,95197.56
2023-07-05T01:41:56.942Z,95189.03
2023-07-05T01:43:00.107Z,95198.75
2023-07-05T01:44:02.492Z,95206.63
2023-07-05T01:45:04.458Z,95204.19
2023-07-05T01:46:32.094Z,95207.09
2023-07-05T01:47:50.377Z,95198.00
2023-07-05T01:49:04.205Z,95193.22
2023-07-05T01:50:15.601Z,95201.50
2023-07-05T01:51:40.143Z,95208.22
2023-07-05T01:53:21.673Z,95195.44
2023-07-05T01:54:51.385Z,95192.28
2023-07-05T01:56:03.383Z,95195.44
2023-07-05T01:57:44.542Z,95193.34
2023-07-05T01:58:49.923Z,95187.22
2023-07-05T02:00:00.550Z,95180.97
2023-07-05T02:01:05.431Z,95190.19
2023-07-05T02:02:10.710Z,95189.38
2023-07-05T02:03:19.542Z,95183.44
2023-07-05T02:04:24.551Z,95192.25
2023-07-05T02:05:29.701Z,95190.75
2023-07-05T02:06:33.857Z,95185.41
2023-07-05T02:07:35.811Z,95188.28
2023-07-05T02:08:39.502Z,95188.28
2023-07-05T02:09:42.575Z,95187.78
2023-07-05T02:10:44.321Z,95188.34
2023-07-05T02:11:46.149Z,95178.25
2023-07-05T02:12:49.085Z,95178.44
2023-07-05T02:13:51.041Z,95177.69
2023-07-05T02:14:53.012Z,95179.50
2023-07-05T02:15:55.026Z,95173.84
2023-07-05T02:16:56.923Z,95177.53
2023-07-05T02:17:58.756Z,95173.22
2023-07-05T02:19:02.639Z,95173.78
2023-07-05T02:20:07.486Z,95174.47
2023-07-05T02:21:11.636Z,95177.91
2023-07-05T02:22:13.600Z,95184.63
2023-07-05T02:23:15.460Z,95176.91
2023-07-05T02:24:17.224Z,95177.72
2023-07-05T02:25:21.437Z,95170.28
2023-07-05T02:26:25.454Z,95177.97
2023-07-05T02:27:28.961Z,95178.06
2023-07-05T02:28:34.353Z,95182.09
2023-07-05T02:29:36.057Z,95177.34
2023-07-05T02:30:38.689Z,95174.13
2023-07-05T02:31:40.434Z,95175.84
2023-07-05T02:32:42.071Z,95172.53
2023-07-05T02:33:46.856Z,95167.34
2023-07-05T02:34:53.592Z,95161.50
2023-07-05T02:35:55.826Z,95162.38
2023-07-05T02:36:57.838Z,95154.38
2023-07-05T02:38:04.968Z,95154.88
2023-07-05T02:39:08.847Z,95159.69
2023-07-05T02:40:10.774Z,95150.75
2023-07-05T02:41:12.527Z,95143.00
2023-07-05T02:42:14.487Z,95146.59
2023-07-05T02:43:16.507Z,95146.69
2023-07-05T02:44:18.174Z,95147.78
2023-07-05T02:45:19.725Z,95154.03
2023-07-05T02:46:21.480Z,95154.44
2023-07-05T02:47:25.548Z,95161.34
2023-07-05T02:48:27.219Z,95159.19
2023-07-05T02:49:28.970Z,95160.66
2023-07-05T02:50:33.852Z,95161.06
2023-07-05T02:51:35.565Z,95155.72
2023-07-05T02:52:39.729Z,95168.66
2023-07-05T02:53:41.409Z,95178.44
2023-07-05T02:54:43.042Z,95186.56
2023-07-05T02:55:45.218Z,95177.56
2023-07-05T02:56:46.935Z,95183.13
2023-07-05T02:57:48.578Z,95194.50
2023-07-05T02:58:51.013Z,95199.81
2023-07-05T02:59:52.701Z,95191.41
2023-07-05T03:00:56.788Z,95189.59
2023-07-05T03:02:01.159Z,95187.31
2023-07-05T03:03:03.112Z,95187.91
2023-07-05T03:04:05.348Z,95195.97
2023-07-05T03:05:11.301Z,95214.56
2023-07-05T03:06:15.205Z,95216.72
2023-07-05T03:07:16.933Z,95222.56
2023-07-05T03:08:18.752Z,95216.72
2023-07-05T03:09:22.442Z,95219.63
2023-07-05T03:10:24.373Z,95228.88
2023-07-05T03:11:26.152Z,95226.44
2023-07-05T03:12:27.677Z,95221.72
2023-07-05T03:13:32.388Z,95215.47
2023-07-05T03:14:35.952Z,95208.34
2023-07-05T03:15:39.506Z,95212.16
2023-07-05T03:16:45.003Z,95214.84
2023-07-05T03:17:47.201Z,95202.63
2023-07-05T03:18:48.909Z,95205.44
2023-07-05T03:19:53.507Z,95194.63
2023-07-05T03:20:58.087Z,95198.88
2023-07-05T03:22:00.408Z,95203.44
2023-07-05T03:23:02.079Z,95206.84
2023-07-05T03:24:05.157Z,95215.38
2023-07-05T03:25:07.376Z,95205.47
2023-07-05T03:26:11.772Z,95203.31
2023-07-05T03:27:13.560Z,95206.81
2023-07-05T03:28:18.031Z,95212.13
2023-07-05T03:29:20.020Z,95214.25
2023-07-05T03:30:24.294Z,95216.41
2023-07-05T03:31:26.087Z,95212.09
2023-07-05T03:32:30.698Z,95208.91
2023-07-05T03:33:35.862Z,95217.41
2023-07-05T03:34:37.707Z,95219.56
2023-07-05T03:35:39.415Z,95216.34
2023-07-05T03:36:41.196Z,95221.09
2023-07-05T03:37:42.903Z,95210.03
2023-07-05T03:38:50.136Z,95209.94
2023-07-05T03:39:54.076Z,95211.16
2023-07-05T03:41:15.060Z,95205.09
2023-07-05T03:42:19.081Z,95199.47
2023-07-05T03:43:21.053Z,95202.69
2023-07-05T03:44:23.374Z,95203.13
2023-07-05T03:45:25.321Z,95207.59
2023-07-05T03:46:27.176Z,95209.97
2023-07-05T03:47:29.892Z,95205.44
2023-07-05T03:48:39.122Z,95211.00
2023-07-05T03:49:43.656Z,95200.34
2023-07-05T03:50:45.366Z,95200.03
2023-07-05T03:51:46.955Z,95207.41
2023-07-05T03:52:51.047Z,95213.72
2023-07-05T03:53:58.724Z,95210.19
2023-07-05T03:55:00.422Z,95196.09
2023-07-05T03:56:04.218Z,95199.59
2023-07-05T03:57:06.320Z,95202.31
2023-07-05T03:58:08.027Z,95194.03
2023-07-05T03:59:10.779Z,95198.84
2023-07-05T04:00:15.789Z,95196.16
2023-07-05T04:01:26.226Z,95198.06
2023-07-05T04:02:27.981Z,95202.63
2023-07-05T04:03:29.626Z,95203.31
2023-07-05T04:04:31.457Z,95210.97
2023-07-05T04:05:33.927Z,95200.25
2023-07-05T04:06:35.735Z,95193.41
2023-07-05T04:07:37.542Z,95207.50
2023-07-05T04:08:40.855Z,95212.41
2023-07-05T04:09:42.561Z,95216.56
2023-07-05T04:10:47.898Z,95208.66
2023-07-05T04:11:51.765Z,95202.53
2023-07-05T04:12:53.512Z,95216.94
2023-07-05T04:13:56.486Z,95226.38
2023-07-05T04:14:58.390Z,95224.94
2023-07-05T04:16:02.287Z,95207.69
2023-07-05T04:17:04.258Z,95212.75
2023-07-05T04:18:08.450Z,95217.88
2023-07-05T04:19:10.522Z,95231.78
2023-07-05T04:20:12.814Z,95231.50
2023-07-05T04:21:14.751Z,95225.06
2023-07-05T04:22:18.946Z,95239.19
2023-07-05T04:23:20.630Z,95238.66
2023-07-05T04:24:22.291Z,95240.59
2023-07-05T04:25:23.960Z,95244.00
2023-07-05T04:26:26.963Z,95243.78
2023-07-05T04:27:31.549Z,95238.06
2023-07-05T04:28:35.042Z,95246.56
2023-07-05T04:29:36.708Z,95246.25
2023-07-05T04:30:38.357Z,95236.47
2023-07-05T04:31:40.114Z,95244.38
2023-07-05T04:32:41.805Z,95242.06
2023-07-05T04:33:44.099Z,95249.72
2023-07-05T04:34:45.791Z,95248.09
2023-07-05T04:35:50.994Z,95242.38
2023-07-05T04:36:52.776Z,95246.50
2023-07-05T04:37:54.385Z,95249.75
2023-07-05T04:39:01.765Z,95242.00
2023-07-05T04:40:04.773Z,95245.34
2023-07-05T04:41:06.515Z,95237.34
2023-07-05T04:42:08.225Z,95245.97
2023-07-05T04:43:10.416Z,95250.16
2023-07-05T04:44:12.119Z,95253.28
2023-07-05T04:45:13.780Z,95252.31
2023-07-05T04:46:15.551Z,95254.88
2023-07-05T04:47:17.450Z,95260.69
2023-07-05T04:48:20.002Z,95248.16
2023-07-05T04:49:24.170Z,95245.72
2023-07-05T04:50:28.334Z,95244.13
2023-07-05T04:51:30.128Z,95251.00
2023-07-05T04:52:31.887Z,95251.63
2023-07-05T04:53:37.274Z,95247.38
2023-07-05T04:54:41.159Z,95246.25
2023-07-05T04:55:50.704Z,95238.25
2023-07-05T04:56:52.391Z,95246.44
2023-07-05T04:57:56.262Z,95249.78
2023-07-05T04:58:58.397Z,95242.94
2023-07-05T05:00:05.750Z,95245.78
2023-07-05T05:01:09.214Z,95240.16
2023-07-05T05:03:14.599Z,95251.34
2023-07-05T05:04:16.500Z,95248.06
2023-07-05T05:05:18.329Z,95246.72
2023-07-05T05:06:20.052Z,95248.88
2023-07-05T05:07:23.951Z,95244.47
2023-07-05T05:08:26.078Z,95261.44
2023-07-05T05:09:27.822Z,95255.22
2023-07-05T05:10:30.078Z,95257.03
2023-07-05T05:11:31.769Z,95256.06
2023-07-05T05:12:35.717Z,95254.84
2023-07-05T05:13:37.791Z,95255.78
2023-07-05T05:14:39.692Z,95250.66
2023-07-05T05:15:41.454Z,95252.03
2023-07-05T05:16:43.192Z,95253.00
2023-07-05T05:17:45.084Z,95250.78
2023-07-05T05:18:46.847Z,95243.28
2023-07-05T05:19:48.431Z,95242.16
2023-07-05T05:20:51.128Z,95241.97
2023-07-05T05:21:55.277Z,95231.25
2023-07-05T05:22:57.016Z,95236.03
2023-07-05T05:24:00.976Z,95237.06
2023-07-05T05:25:02.995Z,95237.78
2023-07-05T05:26:04.797Z,95235.63
2023-07-05T05:27:08.846Z,95225.06
2023-07-05T05:28:14.072Z,95227.50
2023-07-05T05:29:16.078Z,95233.63
2023-07-05T05:30:20.103Z,95235.19
2023-07-05T05:31:21.890Z,95222.88
2023-07-05T05:32:23.695Z,95230.38
2023-07-05T05:33:25.484Z,95218.34
2023-07-05T05:34:27.366Z,95211.63
2023-07-05T05:35:29.468Z,95214.03
2023-07-05T05:36:31.231Z,95221.16
2023-07-05T05:37:32.778Z,95213.47
2023-07-05T05:38:36.850Z,95216.69
2023-07-05T05:39:38.622Z,95224.41
2023-07-05T05:40:40.219Z,95227.03
2023-07-05T05:41:41.884Z,95229.16
2023-07-05T05:42:43.727Z,95232.53
2023-07-05T05:43:47.948Z,95231.31
2023-07-05T05:44:49.681Z,95233.88
2023-07-05T05:45:51.438Z,95224.88
2023-07-05T05:46:53.000Z,95225.38
2023-07-05T05:47:57.811Z,95225.19
2023-07-05T05:48:59.577Z,95231.97
2023-07-05T05:50:01.113Z,95220.34
2023-07-05T05:51:03.018Z,95227.59
2023-07-05T05:52:07.648Z,95230.97
2023-07-05T05:53:12.382Z,95231.72
2023-07-05T05:54:14.178Z,95219.34
2023-07-05T05:55:16.290Z,95224.97
2023-07-05T05:56:20.761Z,95226.03
2023-07-05T05:57:24.667Z,95225.31
2023-07-05T05:58:28.459Z,95225.59
2023-07-05T05:59:30.273Z,95232.91
2023-07-05T06:00:32.892Z,95235.28
2023-07-05T06:01:34.710Z,95227.72
2023-07-05T06:02:39.847Z,95232.00
2023-07-05T06:03:44.197Z,95229.94
2023-07-05T06:04:48.124Z,95234.06
2023-07-05T06:05:50.665Z,95236.66
2023-07-05T06:06:52.390Z,95234.66
2023-07-05T06:07:56.550Z,95229.44
2023-07-05T06:08:58.253Z,95231.38
2023-07-05T06:10:02.986Z,95232.53
2023-07-05T06:11:05.759Z,95233.81
2023-07-05T06:12:07.898Z,95230.88
2023-07-05T06:13:11.961Z,95232.81
2023-07-05T06:14:13.717Z,95233.94
2023-07-05T06:15:15.580Z,95230.00
2023-07-05T06:16:19.543Z,95234.34
2023-07-05T06:17:21.769Z,95243.72
2023-07-05T06:18:23.546Z,95239.16
2023-07-05T06:19:25.099Z,95252.75
2023-07-05T06:20:28.444Z,95244.09
2023-07-05T06:21:30.524Z,95244.59
2023-07-05T06:22:32.880Z,95242.22
2023-07-05T06:23:34.700Z,95243.19
2023-07-05T06:24:36.272Z,95245.41
2023-07-05T06:25:37.939Z,95252.69
2023-07-05T06:26:42.338Z,95262.00
2023-07-05T06:27:44.017Z,95265.78
2023-07-05T06:28:46.296Z,95260.81
2023-07-05T06:29:48.034Z,95255.13
2023-07-05T06:30:49.630Z,95254.16
2023-07-05T06:31:52.293Z,95255.88
2023-07-05T06:32:59.073Z,95259.03
2023-07-05T06:34:01.496Z,95275.09
2023-07-05T06:35:03.326Z,95264.91
2023-07-05T06:36:06.769Z,95263.03
2023-07-05T06:37:10.742Z,95260.00
2023-07-05T06:38:12.480Z,95263.09
2023-07-05T06:39:15.196Z,95265.97
2023-07-05T06:40:16.911Z,95267.69
2023-07-05T06:41:19.641Z,95272.81
2023-07-05T06:42:21.440Z,95278.56
2023-07-05T06:43:30.592Z,95280.16
2023-07-05T06:44:32.273Z,95289.28
2023-07-05T06:45:34.661Z,95294.97
2023-07-05T06:46:36.468Z,95284.78
2023-07-05T06:47:38.455Z,95295.09
2023-07-05T06:48:43.182Z,95294.28
2023-07-05T06:49:44.846Z,95294.13
2023-07-05T06:50:53.427Z,95305.03
2023-07-05T06:51:55.489Z,95305.88
2023-07-05T06:53:22.625Z,95311.25
2023-07-05T06:54:22.545Z,95323.69
2023-07-05T06:55:24.295Z,95315.09
2023-07-05T06:56:25.934Z,95313.53
2023-07-05T06:57:27.736Z,95318.78
2023-07-05T06:58:32.121Z,95321.56
2023-07-05T06:59:33.954Z,95321.47
2023-07-05T07:00:36.133Z,95322.13
2023-07-05T07:01:38.003Z,95319.94
2023-07-05T07:02:39.775Z,95318.66
2023-07-05T07:03:43.387Z,95321.94
2023-07-05T07:04:49.855Z,95330.09
2023-07-05T07:05:54.034Z,95335.06
2023-07-05T07:06:55.754Z,95339.22
2023-07-05T07:07:57.693Z,95331.91
2023-07-05T07:08:59.592Z,95335.25
2023-07-05T07:10:02.844Z,95339.31
2023-07-05T07:11:08.572Z,95330.38
2023-07-05T07:12:12.618Z,95337.50
2023-07-05T07:13:14.917Z,95332.72
2023-07-05T07:14:16.732Z,95334.41
2023-07-05T07:15:18.534Z,95347.91
2023-07-05T07:16:20.105Z,95343.91
2023-07-05T07:17:22.065Z,95334.16
2023-07-05T07:18:25.420Z,95326.50
2023-07-05T07:19:27.336Z,95339.94
2023-07-05T07:20:29.273Z,95353.63
2023-07-05T07:21:31.567Z,95343.56
2023-07-05T07:22:33.309Z,95343.66
2023-07-05T07:23:35.197Z,95344.00
2023-07-05T07:24:36.750Z,95350.25
2023-07-05T07:25:38.484Z,95346.50
2023-07-05T07:26:40.244Z,95354.81
2023-07-05T07:27:41.861Z,95365.16
2023-07-05T07:28:47.429Z,95357.47
2023-07-05T07:29:51.910Z,95366.72
2023-07-05T07:30:54.592Z,95378.81
2023-07-05T07:31:56.417Z,95369.06
2023-07-05T07:32:58.070Z,95367.44
2023-07-05T07:34:02.397Z,95373.97
2023-07-05T07:35:04.466Z,95379.25
2023-07-05T07:36:15.268Z,95379.00
2023-07-05T07:37:19.067Z,95375.06
2023-07-05T07:38:20.715Z,95376.41
2023-07-05T07:39:22.319Z,95378.94
2023-07-05T07:40:24.008Z,95372.72
2023-07-05T07:41:28.004Z,95382.50
2023-07-05T07:42:31.800Z,95377.28
2023-07-05T07:43:33.546Z,95380.16
2023-07-05T07:44:35.092Z,95376.31
2023-07-05T07:45:36.852Z,95383.47
2023-07-05T07:46:39.563Z,95390.75
2023-07-05T07:47:41.265Z,95386.69
2023-07-05T07:48:47.041Z,95392.41
2023-07-05T07:49:51.660Z,95396.31
2023-07-05T07:50:53.640Z,95383.25
2023-07-05T07:51:58.919Z,95391.03
2023-07-05T07:53:00.624Z,95394.94
2023-07-05T07:54:04.904Z,95396.31
2023-07-05T07:55:07.872Z,95395.47
2023-07-05T07:56:13.974Z,95396.63
2023-07-05T07:57:18.848Z,95392.78
2023-07-05T07:58:20.584Z,95394.03
2023-07-05T07:59:22.703Z,95397.84
2023-07-05T08:00:24.490Z,95393.69
2023-07-05T08:01:27.879Z,95392.25
2023-07-05T08:02:30.888Z,95398.22
2023-07-05T08:03:32.712Z,95399.41
2023-07-05T08:04:38.238Z,95389.22
2023-07-05T08:05:40.084Z,95393.81
2023-07-05T08:06:52.248Z,95398.16
2023-07-05T08:07:54.084Z,95409.50
2023-07-05T08:08:56.617Z,95406.69
2023-07-05T08:10:00.646Z,95407.25
2023-07-05T08:11:06.800Z,95403.69
2023-07-05T08:12:10.000Z,95395.13
2023-07-05T08:13:11.778Z,95392.72
2023-07-05T08:14:18.659Z,95386.88
2023-07-05T08:15:20.470Z,95388.91
2023-07-05T08:16:22.472Z,95387.44
2023-07-05T08:17:26.566Z,95395.63
2023-07-05T08:18:29.434Z,95388.97
2023-07-05T08:19:31.802Z,95385.78
2023-07-05T08:20:36.271Z,95394.84
2023-07-05T08:21:38.150Z,95390.47
2023-07-05T08:22:39.965Z,95395.97
2023-07-05T08:23:43.275Z,95399.69
2023-07-05T08:24:45.038Z,95400.97
2023-07-05T08:25:47.092Z,95398.34
2023-07-05T08:26:48.945Z,95398.78
2023-07-05T08:27:50.593Z,95401.19
2023-07-05T08:28:52.204Z,95404.28
2023-07-05T08:29:53.957Z,95408.84
2023-07-05T08:31:01.149Z,95401.91
2023-07-05T08:32:05.700Z,95404.44
2023-07-05T08:33:07.875Z,95398.66
2023-07-05T08:34:13.527Z,95407.53
2023-07-05T08:35:15.256Z,95401.41
2023-07-05T08:36:29.510Z,95412.69
2023-07-05T08:37:31.456Z,95408.63
2023-07-05T08:38:33.011Z,95409.09
2023-07-05T08:39:35.628Z,95408.72
2023-07-05T08:40:41.459Z,95403.34
2023-07-05T08:41:45.505Z,95400.41
2023-07-05T08:43:03.011Z,95406.53
2023-07-05T08:44:04.887Z,95406.19
2023-07-05T08:45:19.576Z,95401.75
2023-07-05T08:46:22.513Z,95401.91
2023-07-05T08:47:35.103Z,95400.75
2023-07-05T08:48:40.380Z,95408.22
2023-07-05T08:50:14.246Z,95404.06
2023-07-05T08:51:25.513Z,95402.59
2023-07-05T08:52:32.882Z,95393.78
2023-07-05T08:53:48.370Z,95399.25
2023-07-05T08:54:58.368Z,95404.53
2023-07-05T08:56:21.474Z,95405.06
2023-07-05T08:57:54.873Z,95410.31
2023-07-05T08:59:22.725Z,95411.44
2023-07-05T09:00:40.995Z,95405.47
2023-07-05T09:01:43.607Z,95400.25
2023-07-05T09:02:47.566Z,95402.25
2023-07-05T09:03:51.908Z,95396.31
2023-07-05T09:04:56.787Z,95404.25
2023-07-05T09:06:23.018Z,95403.81
2023-07-05T09:07:57.728Z,95409.28
2023-07-05T09:09:06.045Z,95406.72
2023-07-05T09:10:16.292Z,95405.09
2023-07-05T09:11:46.091Z,95407.50
2023-07-05T09:13:03.148Z,95406.41
2023-07-05T09:14:24.292Z,95399.66
2023-07-05T09:15:35.534Z,95400.56
2023-07-05T09:17:14.114Z,95398.25
2023-07-05T09:18:36.491Z,95401.91
2023-07-05T09:19:46.660Z,95408.13
2023-07-05T09:21:33.508Z,95411.19
2023-07-05T09:22:38.570Z,95412.63
2023-07-05T09:23:46.070Z,95417.56
2023-07-05T09:24:48.049Z,95419.16
2023-07-05T09:25:56.341Z,95412.56
2023-07-05T09:27:04.971Z,95407.69
2023-07-05T09:28:22.044Z,95413.72
2023-07-05T09:29:58.466Z,95423.00
2023-07-05T09:31:01.143Z,95431.47
2023-07-05T09:32:14.376Z,95427.19
2023-07-05T09:33:35.322Z,95428.38
2023-07-05T09:35:00.575Z,95429.72
2023-07-05T09:36:23.616Z,95422.78
2023-07-05T09:38:01.597Z,95422.59
2023-07-05T09:39:54.087Z,95424.78
2023-07-05T09:41:30.074Z,95429.53
2023-07-05T09:43:32.598Z,95430.53
2023-07-05T09:44:55.020Z,95431.47
2023-07-05T09:50:11.353Z,95433.28
2023-07-05T09:51:33.910Z,95429.03
2023-07-05T10:02:29.164Z,95423.16
2023-07-05T10:03:37.932Z,95429.25
2023-07-05T10:04:54.392Z,95429.31
2023-07-05T10:06:02.306Z,95435.88
2023-07-05T10:07:04.897Z,95432.09
2023-07-05T10:08:16.248Z,95425.16
2023-07-05T10:09:22.212Z,95433.59
2023-07-05T10:10:33.561Z,95437.03
2023-07-05T10:11:46.886Z,95446.53
2023-07-05T10:12:52.916Z,95446.84
2023-07-05T10:14:04.999Z,95446.56
2023-07-05T10:15:24.562Z,95452.03
2023-07-05T10:16:26.618Z,95451.75
2023-07-05T10:17:43.450Z,95444.09
2023-07-05T10:18:45.251Z,95447.91
2023-07-05T10:19:52.498Z,95449.00
2023-07-05T10:20:59.000Z,95454.16
2023-07-05T10:22:15.851Z,95460.69
2023-07-05T10:23:23.029Z,95467.16
2023-07-05T10:24:26.004Z,95462.78
2023-07-05T10:25:35.350Z,95467.22
2023-07-05T10:26:37.222Z,95474.47
2023-07-05T10:27:39.196Z,95470.34
2023-07-05T10:28:43.128Z,95460.84
2023-07-05T10:29:48.653Z,95467.03
2023-07-05T10:30:58.158Z,95469.44
2023-07-05T10:32:01.451Z,95476.94
2023-07-05T10:33:09.433Z,95462.72
2023-07-05T10:34:20.847Z,95461.91
2023-07-05T10:35:25.761Z,95465.03
2023-07-05T10:36:27.578Z,95466.13
2023-07-05T10:37:39.818Z,95467.03
2023-07-05T10:38:49.970Z,95476.84
2023-07-05T10:39:51.788Z,95477.72
2023-07-05T10:40:56.603Z,95476.38
2023-07-05T10:42:00.837Z,95481.56
2023-07-05T10:43:06.786Z,95474.91
2023-07-05T10:44:20.686Z,95478.47
2023-07-05T10:45:25.886Z,95471.38
2023-07-05T10:46:28.788Z,95465.31
2023-07-05T10:47:32.923Z,95469.94
2023-07-05T10:48:43.343Z,95473.06
2023-07-05T10:49:48.168Z,95471.97
2023-07-05T10:50:50.984Z,95479.50
2023-07-05T10:51:57.491Z,95492.34
2023-07-05T10:53:06.056Z,95491.84
2023-07-05T10:54:19.815Z,95488.00
2023-07-05T10:55:36.947Z,95479.34
2023-07-05T10:56:41.521Z,95480.84
2023-07-05T10:57:53.693Z,95488.03
2023-07-05T10:59:14.103Z,95492.34
2023-07-05T11:00:44.905Z,95498.69
2023-07-05T11:02:15.680Z,95492.38
2023-07-05T11:03:25.405Z,95489.84
2023-07-05T11:04:31.371Z,95486.00
2023-07-05T11:05:45.075Z,95488.25
2023-07-05T11:06:49.471Z,95482.91
2023-07-05T11:07:56.457Z,95483.13
2023-07-05T11:08:58.442Z,95486.81
2023-07-05T11:10:00.333Z,95482.72
2023-07-05T11:11:20.754Z,95489.50
2023-07-05T11:12:26.551Z,95485.38
2023-07-05T11:13:30.962Z,95488.38
2023-07-05T11:14:33.933Z,95483.09
2023-07-05T11:15:36.354Z,95483.00
2023-07-05T11:16:41.078Z,95480.53
2023-07-05T11:17:47.919Z,95481.94
2023-07-05T11:18:57.396Z,95483.13
2023-07-05T11:19:59.533Z,95480.75
2023-07-05T11:21:01.336Z,95478.78
2023-07-05T11:22:05.306Z,95477.09
2023-07-05T11:23:12.494Z,95479.97
2023-07-05T11:24:39.851Z,95467.06
2023-07-05T11:25:53.907Z,95483.41
2023-07-05T11:26:55.561Z,95487.09
2023-07-05T11:28:00.183Z,95492.03
2023-07-05T11:29:22.510Z,95484.69
2023-07-05T11:30:47.965Z,95483.28
2023-07-05T11:31:49.847Z,95487.69
2023-07-05T11:33:04.197Z,95483.41
2023-07-05T11:34:27.316Z,95478.72
2023-07-05T11:35:52.256Z,95490.31
2023-07-05T11:37:06.237Z,95482.56
2023-07-05T11:38:08.022Z,95491.09
2023-07-05T11:39:09.585Z,95482.38
2023-07-05T11:40:49.882Z,95474.75
2023-07-05T11:41:51.784Z,95486.00
2023-07-05T11:42:53.424Z,95475.44
2023-07-05T11:43:57.552Z,95479.06
2023-07-05T11:45:05.258Z,95475.59
2023-07-05T11:46:49.571Z,95482.97
2023-07-05T11:47:57.232Z,95475.44
2023-07-05T11:49:16.058Z,95480.31
2023-07-05T11:50:29.209Z,95487.59
2023-07-05T11:51:38.575Z,95495.13
2023-07-05T11:52:47.947Z,95483.19
2023-07-05T11:53:50.085Z,95485.53
2023-07-05T11:55:13.459Z,95475.00
2023-07-05T11:56:18.276Z,95475.88
2023-07-05T11:57:20.529Z,95481.22
2023-07-05T11:58:30.976Z,95483.91
2023-07-05T11:59:37.594Z,95477.75
2023-07-05T12:00:59.659Z,95485.56
2023-07-05T12:02:13.937Z,95480.13
2023-07-05T12:03:24.022Z,95476.72
2023-07-05T12:04:28.319Z,95483.31
2023-07-05T12:05:37.280Z,95476.00
2023-07-05T12:06:42.305Z,95486.75
2023-07-05T12:07:48.369Z,95480.44
2023-07-05T12:09:04.817Z,95483.41
2023-07-05T12:10:08.639Z,95476.84
2023-07-05T12:11:12.996Z,95475.44
2023-07-05T12:12:15.159Z,95484.84
2023-07-05T12:13:24.069Z,95469.69
2023-07-05T12:14:26.203Z,95471.91
2023-07-05T12:15:28.328Z,95482.72
2023-07-05T12:16:31.800Z,95482.94
2023-07-05T12:17:38.333Z,95480.66
2023-07-05T12:18:46.006Z,95482.25
2023-07-05T12:19:51.132Z,95484.31
2023-07-05T12:20:55.835Z,95476.41
2023-07-05T12:22:10.878Z,95472.81
2023-07-05T12:23:14.664Z,95472.03
2023-07-05T12:24:19.171Z,95475.59
2023-07-05T12:25:21.270Z,95483.53
2023-07-05T12:26:25.829Z,95476.97
2023-07-05T12:27:37.105Z,95470.34
2023-07-05T12:28:43.749Z,95461.19
2023-07-05T12:29:50.723Z,95466.25
2023-07-05T12:31:07.766Z,95474.41
2023-07-05T12:32:18.106Z,95477.56
2023-07-05T12:33:25.924Z,95478.28
2023-07-05T12:34:27.622Z,95481.94
2023-07-05T12:35:29.962Z,95479.16
2023-07-05T12:36:44.169Z,95472.81
2023-07-05T12:37:49.409Z,95479.56
2023-07-05T12:39:06.181Z,95484.22
2023-07-05T12:40:17.998Z,95473.31
2023-07-05T12:41:28.062Z,95476.38
2023-07-05T12:42:30.208Z,95473.41
2023-07-05T12:43:33.942Z,95474.00
2023-07-05T12:44:40.201Z,95479.91
2023-07-05T12:45:42.266Z,95472.38
2023-07-05T12:46:48.315Z,95472.53
2023-07-05T12:47:51.538Z,95471.75
2023-07-05T12:48:53.956Z,95477.50
2023-07-05T12:50:05.754Z,95473.13
2023-07-05T12:51:29.420Z,95469.44
2023-07-05T12:52:31.469Z,95465.91
2023-07-05T12:53:35.868Z,95466.69
2023-07-05T12:54:39.150Z,95466.25
2023-07-05T12:55:42.071Z,95464.06
2023-07-05T12:56:46.973Z,95466.44
2023-07-05T12:57:53.324Z,95464.56
2023-07-05T12:59:00.499Z,95468.63
2023-07-05T13:00:06.690Z,95458.63
2023-07-05T13:01:13.632Z,95452.16
2023-07-05T13:02:32.138Z,95453.88
2023-07-05T13:03:35.544Z,95455.19
2023-07-05T13:04:39.012Z,95463.34
2023-07-05T13:05:42.112Z,95469.75
2023-07-05T13:06:44.311Z,95471.94
2023-07-05T13:07:49.773Z,95482.97
2023-07-05T13:08:54.228Z,95470.38
2023-07-05T13:10:09.821Z,95473.97
2023-07-05T13:11:16.161Z,95469.38
2023-07-05T13:12:17.976Z,95477.16
2023-07-05T13:13:32.424Z,95466.84
2023-07-05T13:14:39.908Z,95467.84
2023-07-05T13:15:41.929Z,95460.69